Conquest, New York
Current Conditions -  °F | °C
As of 8:54 AM on Thursday 23 Oct 2014 (Local Time) from KFZY Reporting Station
Overcast Overcast  
Wind Chill: 43°   Ceiling: 7500
Heat Index: 49°   Visibility: 10mi
Dew Point: 37°   Wind: 17mph
Humidity: 64%   Direction: 10°N
Pressure: 30.01"   Gusts: 30mph
Location:  43.0228°N, 76.6522°W
Report Text: KFZY 231254Z AUTO 01015G26KT 10SM OVC075 09/03 A3001 RMK AO2 PK WND 01027/1213 SLP166 T00940028
Loading
Personal Weather Stations






























Interactive Weather Map
Tropical Storm Tracking
New forecast layout! Learn more

10-Day Weather Forecast

Advertisements
Track Severe Weather on mobile